KSJN/SJN METAR and TAF weather

Enter ICAO airport designator
Station Type Date Time Source
KSJN METAR 2022/06/10 19:54 UTC NOAA

KSJN 101954Z AUTO 31006KT 10SM CLR 34/M03 A3015 RMK AO2 SLP093 T03441033


Station Type Date Time Source
KSJN Decoded METAR 2022/06/10 19:54 UTC NOAA

ST JOHNS INDUSTRIAL AIRPRK, AZ, United States (KSJN) 34-31N 109-23W 1745M
Jun 10, 2022 - 03:54 PM EDT / 2022.06.10 1954 UTC
Wind: from the NW (310 degrees) at 7 MPH (6 KT):0
Visibility: 10 mile(s):0
Sky conditions: clear
Temperature: 93.9 F (34.4 C)
Dew Point: 26.1 F (-3.3 C)
Relative Humidity: 8%
Pressure (altimeter): 30.15 in. Hg (1020 hPa)
ob: KSJN 101954Z AUTO 31006KT 10SM CLR 34/M03 A3015 RMK AO2 SLP093 T03441033
cycle: 20

Station Type Date Time Source
KSJN TAF UTC NOAA

Error!

Example: see airport list